Time;durP1;ratioP1;P1;durP2;ratioP2;P2;SDS_P1;SDS_P2;PMS_P1;PMS_P2;Temp;Humidity;BMP_temperature;BMP_pressure;BME280_temperature;BME280_humidity;BME280_pressure;Samples;Min_cycle;Max_cycle;Signal;HPM_P1;HPM_P2
2023/08/29 00:03:03;;;;;;;1.27;1.17;;;;;;;16.55;88.17;101117.91;6296197;28;20225;-68
2023/08/29 00:06:24;;;;;;;2.22;1.30;;;;;;;16.58;89.14;101117.59;6292086;28;20230;-68
2023/08/29 00:09:46;;;;;;;2.70;1.95;;;;;;;16.56;89.02;101111.47;6294953;28;20718;-68
2023/08/29 00:13:08;;;;;;;2.20;2.10;;;;;;;16.55;89.03;101107.88;6273389;22;21747;-68
2023/08/29 00:16:29;;;;;;;1.90;1.60;;;;;;;16.48;89.39;101101.34;6204957;28;20600;-67
2023/08/29 00:19:49;;;;;;;1.52;1.42;;;;;;;16.29;90.25;101089.97;6205379;28;21238;-68
2023/08/29 00:23:10;;;;;;;1.77;1.60;;;;;;;16.37;90.60;101088.09;6208231;28;20661;-67
2023/08/29 00:26:31;;;;;;;2.58;1.92;;;;;;;16.36;90.28;101089.09;6210725;28;20288;-69
2023/08/29 00:29:54;;;;;;;1.98;1.83;;;;;;;16.37;90.22;101088.09;6203259;28;20626;-67
2023/08/29 00:33:15;;;;;;;2.53;2.03;;;;;;;16.29;90.62;101090.78;6199695;28;20252;-68
2023/08/29 00:36:36;;;;;;;2.17;1.65;;;;;;;16.36;90.60;101090.97;6196723;28;20233;-67
2023/08/29 00:39:57;;;;;;;1.85;1.55;;;;;;;16.29;91.04;101079.06;6218692;28;20248;-67
2023/08/29 00:43:18;;;;;;;3.38;2.60;;;;;;;16.31;91.13;101077.03;6219931;28;20739;-67
2023/08/29 00:46:40;;;;;;;2.97;2.67;;;;;;;16.31;90.63;101072.41;6219186;28;20291;-67
2023/08/29 00:50:01;;;;;;;2.90;2.30;;;;;;;16.27;91.10;101068.34;6204403;28;20550;-67
2023/08/29 00:53:23;;;;;;;2.28;2.15;;;;;;;16.21;91.46;101066.28;6222254;28;20272;-67
2023/08/29 00:56:46;;;;;;;2.47;2.28;;;;;;;16.18;91.19;101063.91;6189065;28;20236;-68
2023/08/29 01:00:08;;;;;;;3.13;2.93;;;;;;;16.12;91.54;101061.88;6217083;28;20448;-68
2023/08/29 01:03:31;;;;;;;2.30;2.10;;;;;;;16.10;92.04;101068.50;6218816;28;20258;-68
2023/08/29 01:06:54;;;;;;;2.72;2.45;;;;;;;16.09;91.83;101066.78;6188885;28;20622;-67
2023/08/29 01:10:16;;;;;;;4.60;2.67;;;;;;;15.95;92.19;101074.59;6206459;28;20256;-68
2023/08/29 01:13:45;;;;;;;3.15;2.78;;;;;;;15.92;92.79;101076.75;6210987;28;20225;-68
2023/08/29 01:17:09;;;;;;;4.63;3.40;;;;;;;15.86;92.93;101072.84;6172762;28;20570;-68
2023/08/29 01:20:34;;;;;;;3.30;3.10;;;;;;;15.86;92.84;101082.88;6219369;28;20945;-68
2023/08/29 01:24:02;;;;;;;5.03;2.83;;;;;;;15.85;92.68;101092.06;6215512;28;22283;-69
2023/08/29 01:27:29;;;;;;;2.60;2.40;;;;;;;15.76;92.88;101091.19;6188434;28;20240;-68
2023/08/29 01:30:51;;;;;;;2.42;2.22;;;;;;;15.79;93.21;101103.59;6221693;28;20267;-68
2023/08/29 01:34:13;;;;;;;1.90;1.80;;;;;;;15.78;92.98;101089.16;6225423;28;20816;-67
2023/08/29 01:37:34;;;;;;;2.33;2.13;;;;;;;15.86;93.14;101093.75;6221664;28;20233;-67
2023/08/29 01:40:55;;;;;;;2.20;2.03;;;;;;;15.75;93.03;101092.19;6209000;28;20260;-68
2023/08/29 01:44:17;;;;;;;2.97;2.77;;;;;;;15.68;93.00;101093.00;6218210;28;20783;-67
2023/08/29 01:47:38;;;;;;;2.53;2.33;;;;;;;15.62;93.09;101099.09;6213788;28;20260;-67
2023/08/29 01:50:59;;;;;;;3.08;2.88;;;;;;;15.66;93.60;101103.19;6209478;28;20258;-67
2023/08/29 01:54:20;;;;;;;3.55;2.63;;;;;;;15.59;93.67;101097.56;6202407;28;20228;-67
2023/08/29 01:57:44;;;;;;;2.75;2.50;;;;;;;15.51;93.69;101108.38;6220006;28;20327;-68
2023/08/29 02:01:06;;;;;;;2.70;2.50;;;;;;;15.41;93.88;101109.47;6205520;28;20237;-69
2023/08/29 02:04:28;;;;;;;2.33;2.17;;;;;;;15.40;93.63;101113.19;6209688;28;20317;-67
2023/08/29 02:07:50;;;;;;;4.70;2.70;;;;;;;15.46;94.23;101118.06;6214572;28;20277;-66
2023/08/29 02:11:11;;;;;;;2.67;2.47;;;;;;;15.38;94.46;101118.81;6201609;28;20268;-68
2023/08/29 02:14:33;;;;;;;2.60;2.40;;;;;;;15.44;94.39;101115.47;6210964;28;21083;-68
2023/08/29 02:17:55;;;;;;;3.63;2.67;;;;;;;15.44;94.24;101120.03;6209805;28;20260;-68
2023/08/29 02:21:16;;;;;;;2.67;2.47;;;;;;;15.37;94.05;101116.25;6224852;28;20236;-68
2023/08/29 02:24:37;;;;;;;2.70;2.50;;;;;;;15.39;93.85;101120.53;6205886;28;20228;-67
2023/08/29 02:27:58;;;;;;;2.13;1.93;;;;;;;15.52;94.22;101118.22;6197015;28;20260;-68
2023/08/29 02:31:20;;;;;;;2.93;2.50;;;;;;;15.36;93.62;101112.69;6212539;28;20234;-67
2023/08/29 02:34:43;;;;;;;2.77;2.57;;;;;;;15.40;94.02;101103.19;6209938;28;20237;-68
2023/08/29 02:38:04;;;;;;;2.73;2.53;;;;;;;15.33;94.43;101117.59;6208948;28;20236;-68
2023/08/29 02:41:26;;;;;;;4.40;2.70;;;;;;;15.33;94.61;101118.47;6204843;28;20228;-68
2023/08/29 02:44:47;;;;;;;2.80;2.50;;;;;;;15.33;94.62;101120.31;6214196;28;20232;-67
2023/08/29 02:48:09;;;;;;;2.73;2.53;;;;;;;15.36;94.32;101123.53;6216786;28;20241;-68
2023/08/29 02:51:32;;;;;;;2.37;2.27;;;;;;;15.38;94.54;101134.25;6194462;28;20229;-68
2023/08/29 02:54:53;;;;;;;3.20;2.80;;;;;;;15.41;94.74;101128.50;6218628;28;20236;-68
2023/08/29 02:58:13;;;;;;;2.60;2.20;;;;;;;15.43;94.78;101131.94;6224315;28;20240;-67
2023/08/29 03:01:34;;;;;;;3.73;2.27;;;;;;;15.36;94.52;101131.69;6204913;28;20241;-67
2023/08/29 03:04:55;;;;;;;1.77;1.67;;;;;;;15.28;94.50;101115.34;6206176;28;20562;-69
2023/08/29 03:08:17;;;;;;;3.70;3.10;;;;;;;15.27;94.44;101112.81;6182822;28;20240;-67
2023/08/29 03:11:38;;;;;;;4.17;2.97;;;;;;;15.15;94.58;101104.91;6196016;28;20237;-69
2023/08/29 03:14:59;;;;;;;3.57;2.57;;;;;;;15.13;95.19;101108.81;6202398;28;20263;-67
2023/08/29 03:18:20;;;;;;;4.00;3.43;;;;;;;15.10;94.83;101098.28;6211924;28;20259;-68
2023/08/29 03:21:40;;;;;;;6.57;3.37;;;;;;;15.04;95.39;101097.03;6199581;28;20304;-68
2023/08/29 03:25:03;;;;;;;9.20;7.43;;;;;;;15.13;95.10;101100.66;6205116;28;20561;-68
2023/08/29 03:28:24;;;;;;;4.70;4.30;;;;;;;15.11;95.21;101089.09;6206491;28;20228;-67
2023/08/29 03:31:45;;;;;;;4.30;3.90;;;;;;;15.07;95.49;101087.72;6193551;28;20228;-68
2023/08/29 03:35:07;;;;;;;4.47;4.07;;;;;;;15.02;95.42;101090.03;6218195;28;20323;-68
2023/08/29 03:38:28;;;;;;;4.23;3.80;;;;;;;15.01;95.89;101077.50;6200522;28;20225;-68
2023/08/29 03:41:50;;;;;;;3.60;3.10;;;;;;;14.99;95.49;101084.94;6200882;28;20240;-68
2023/08/29 03:45:11;;;;;;;4.13;3.73;;;;;;;15.04;95.72;101082.63;6218528;28;20564;-68
2023/08/29 03:48:33;;;;;;;4.77;3.13;;;;;;;15.15;95.55;101082.34;6193112;28;20384;-68
2023/08/29 03:51:53;;;;;;;3.23;2.93;;;;;;;15.13;95.28;101085.22;6214652;28;21492;-66
2023/08/29 03:55:14;;;;;;;4.07;3.10;;;;;;;15.16;95.34;101084.88;6203211;28;20232;-67
2023/08/29 03:58:36;;;;;;;2.73;2.53;;;;;;;15.25;95.01;101077.63;6201523;28;20787;-68
2023/08/29 04:01:57;;;;;;;4.53;3.50;;;;;;;15.30;95.15;101071.72;6192896;28;20224;-68
2023/08/29 04:05:18;;;;;;;13.87;12.27;;;;;;;15.29;95.09;101068.16;6199627;28;20319;-68
2023/08/29 04:08:38;;;;;;;8.17;6.47;;;;;;;15.30;94.59;101056.28;6190430;28;20232;-67
2023/08/29 04:11:59;;;;;;;11.47;10.37;;;;;;;15.20;94.34;101055.56;6210419;28;20232;-68
2023/08/29 04:15:23;;;;;;;8.90;8.20;;;;;;;15.14;94.53;101046.16;6218492;28;20228;-68
2023/08/29 04:18:44;;;;;;;6.63;6.03;;;;;;;15.07;94.58;101041.56;6781306;23;20240;-67
2023/08/29 04:22:05;;;;;;;5.37;4.87;;;;;;;15.10;94.81;101042.06;6212808;28;20231;-67
2023/08/29 04:25:27;;;;;;;4.23;3.93;;;;;;;15.15;94.64;101044.31;6247175;28;20227;-67
2023/08/29 04:28:48;;;;;;;3.37;3.17;;;;;;;15.21;94.41;101036.38;6239096;28;20231;-68
2023/08/29 04:32:11;;;;;;;3.30;2.80;;;;;;;15.16;94.73;101040.59;6210504;28;20667;-67
2023/08/29 04:35:33;;;;;;;3.80;3.50;;;;;;;15.10;94.67;101036.66;6228825;28;20258;-67
2023/08/29 04:38:53;;;;;;;9.93;9.03;;;;;;;15.21;94.17;101032.78;6238485;28;20680;-68
2023/08/29 04:42:14;;;;;;;11.47;8.40;;;;;;;15.19;94.14;101029.41;6216773;28;20247;-67
2023/08/29 04:45:35;;;;;;;8.27;5.80;;;;;;;15.15;94.54;101025.31;6214604;28;20235;-67
2023/08/29 04:48:58;;;;;;;5.03;4.53;;;;;;;15.15;94.27;101034.31;6228739;28;20228;-70
2023/08/29 04:52:19;;;;;;;4.37;3.97;;;;;;;15.29;94.53;101032.00;6222633;28;20268;-66
2023/08/29 04:55:41;;;;;;;3.47;3.00;;;;;;;15.36;94.28;101030.31;6225842;28;20232;-67
2023/08/29 04:59:03;;;;;;;4.30;2.73;;;;;;;15.40;94.09;101021.69;6242657;28;20232;-66
2023/08/29 05:02:24;;;;;;;2.57;2.37;;;;;;;15.35;93.92;101013.19;6208380;28;20230;-66
2023/08/29 05:05:47;;;;;;;3.03;2.73;;;;;;;15.36;93.87;101025.75;6233030;28;20396;-66
2023/08/29 05:09:09;;;;;;;6.60;2.90;;;;;;;15.34;93.92;101027.78;6255760;28;20554;-68
2023/08/29 05:12:30;;;;;;;2.90;2.70;;;;;;;15.33;93.96;101022.50;6224215;28;20227;-66
2023/08/29 05:15:51;;;;;;;3.20;2.90;;;;;;;15.39;94.51;101022.72;6221432;28;20260;-66
2023/08/29 05:19:12;;;;;;;7.57;6.70;;;;;;;15.38;94.20;101007.41;6257075;28;20538;-66
2023/08/29 05:22:34;;;;;;;9.00;8.20;;;;;;;15.55;94.40;101019.22;6239851;28;20240;-66
2023/08/29 05:25:55;;;;;;;9.40;8.43;;;;;;;15.70;93.90;101031.19;6241945;28;20231;-66
2023/08/29 05:29:16;;;;;;;5.90;5.33;;;;;;;15.78;92.95;101034.78;6252328;28;20235;-66
2023/08/29 05:32:38;;;;;;;6.17;4.03;;;;;;;15.78;92.54;101040.22;6250713;28;20235;-66
2023/08/29 05:35:58;;;;;;;4.20;3.80;;;;;;;15.70;92.44;101036.63;6241965;28;20235;-66
2023/08/29 05:39:21;;;;;;;4.87;3.37;;;;;;;15.72;92.58;101034.56;6260362;28;20235;-67
2023/08/29 05:42:42;;;;;;;4.20;3.87;;;;;;;15.67;92.73;101035.06;6247500;28;21602;-67
2023/08/29 05:46:03;;;;;;;4.37;3.97;;;;;;;15.74;92.21;101037.97;6238135;28;20508;-67
2023/08/29 05:49:23;;;;;;;3.37;3.07;;;;;;;15.81;91.88;101050.72;6248350;28;20235;-66
2023/08/29 05:52:44;;;;;;;3.87;2.93;;;;;;;15.90;91.19;101038.00;6255429;28;20232;-68
2023/08/29 05:56:06;;;;;;;4.47;4.07;;;;;;;15.95;90.65;101028.34;6244672;28;20636;-67
2023/08/29 05:59:27;;;;;;;3.90;3.60;;;;;;;15.93;90.46;101026.81;6242916;28;21776;-67
2023/08/29 06:02:51;;;;;;;4.17;3.40;;;;;;;15.93;90.68;101022.25;6250033;28;20235;-66
2023/08/29 06:06:14;;;;;;;3.83;3.43;;;;;;;16.04;90.31;101039.25;6243287;28;20605;-67
2023/08/29 06:09:35;;;;;;;3.17;2.97;;;;;;;16.16;90.23;101025.16;6244256;28;20232;-67
2023/08/29 06:12:57;;;;;;;4.77;4.30;;;;;;;16.12;90.01;101026.50;6249487;28;20239;-68
2023/08/29 06:16:20;;;;;;;4.57;4.17;;;;;;;16.22;89.35;101029.91;6241537;28;20247;-67
2023/08/29 06:19:41;;;;;;;7.40;6.03;;;;;;;16.19;89.01;101026.69;6251347;28;20228;-68
2023/08/29 06:23:03;;;;;;;8.10;7.40;;;;;;;16.32;89.45;101025.16;6253879;28;20232;-68
2023/08/29 06:26:24;;;;;;;7.70;6.93;;;;;;;16.35;89.42;101030.28;6240364;28;20251;-67
2023/08/29 06:29:46;;;;;;;5.63;5.03;;;;;;;16.46;89.05;101023.63;6247330;28;20231;-67
2023/08/29 06:33:07;;;;;;;3.83;3.53;;;;;;;16.55;88.41;101028.94;6234820;28;20267;-68
2023/08/29 06:36:28;;;;;;;5.13;4.43;;;;;;;16.68;88.03;101028.41;6235906;28;20629;-68
2023/08/29 06:39:51;;;;;;;4.40;4.03;;;;;;;16.55;87.91;101033.53;6223379;28;20223;-68
2023/08/29 06:43:15;;;;;;;3.77;3.47;;;;;;;16.74;87.76;101034.03;6239453;28;20251;-67
2023/08/29 06:46:36;;;;;;;2.80;2.60;;;;;;;16.78;87.36;101031.81;6241615;28;20322;-67
2023/08/29 06:49:57;;;;;;;7.53;3.03;;;;;;;16.97;87.09;101025.13;6236019;28;20605;-67
2023/08/29 06:53:18;;;;;;;6.60;3.55;;;;;;;17.08;86.69;101022.03;6238257;28;20255;-67
2023/08/29 06:56:39;;;;;;;3.95;3.60;;;;;;;17.11;86.36;101027.97;6239348;28;20236;-67
2023/08/29 07:00:00;;;;;;;3.58;3.17;;;;;;;17.03;85.80;101022.56;6239615;28;20240;-68
2023/08/29 07:03:22;;;;;;;4.03;3.38;;;;;;;17.10;85.58;101014.53;6222549;28;20313;-68
2023/08/29 07:06:43;;;;;;;3.03;2.83;;;;;;;17.10;85.51;101020.00;6245668;28;20231;-67
2023/08/29 07:10:05;;;;;;;3.35;3.05;;;;;;;17.18;85.88;101014.50;6257824;28;20314;-68
2023/08/29 07:13:28;;;;;;;4.72;4.03;;;;;;;17.34;84.84;101026.22;6248136;28;20230;-67
2023/08/29 07:16:49;;;;;;;3.25;2.88;;;;;;;17.45;85.00;101027.69;6229688;28;20259;-67
2023/08/29 07:20:11;;;;;;;3.45;2.83;;;;;;;17.60;84.32;101034.16;6256498;28;20629;-68
2023/08/29 07:23:34;;;;;;;6.53;3.50;;;;;;;17.90;83.69;101030.56;6246312;28;20235;-67
2023/08/29 07:26:56;;;;;;;3.45;3.15;;;;;;;17.82;83.23;101038.78;6253333;28;20345;-67
2023/08/29 07:30:17;;;;;;;4.10;3.20;;;;;;;17.94;83.10;101036.53;6223254;28;20259;-67
2023/08/29 07:33:38;;;;;;;2.45;2.25;;;;;;;18.00;82.53;101036.63;6218715;28;20239;-68
2023/08/29 07:37:00;;;;;;;3.30;3.00;;;;;;;18.10;82.52;101041.88;6246880;28;20232;-67
2023/08/29 07:40:21;;;;;;;6.40;3.80;;;;;;;18.07;81.93;101036.75;6254048;28;20230;-67
2023/08/29 07:43:42;;;;;;;3.08;2.88;;;;;;;18.08;81.82;101035.75;6247776;28;20250;-68
2023/08/29 07:47:03;;;;;;;3.50;3.20;;;;;;;18.09;82.03;101035.56;6245658;28;20306;-67
2023/08/29 07:50:24;;;;;;;7.22;6.53;;;;;;;18.25;81.74;101042.81;6257946;28;20251;-68
2023/08/29 07:53:46;;;;;;;9.45;8.07;;;;;;;18.36;81.79;101039.63;6251404;28;20243;-68
2023/08/29 07:57:07;;;;;;;8.35;6.28;;;;;;;18.42;81.57;101035.34;6239522;28;20231;-68
2023/08/29 08:00:28;;;;;;;3.30;3.05;;;;;;;18.35;81.50;101044.25;6258321;28;20612;-67
2023/08/29 08:03:49;;;;;;;3.00;2.78;;;;;;;18.40;81.52;101048.31;6251853;28;22749;-68
2023/08/29 08:07:10;;;;;;;5.53;2.75;;;;;;;18.50;81.22;101046.22;6241995;28;20235;-68
2023/08/29 08:10:34;;;;;;;2.28;1.90;;;;;;;18.44;80.84;101047.78;6237436;28;20224;-67
2023/08/29 08:13:56;;;;;;;3.22;2.63;;;;;;;18.45;81.19;101052.22;6259638;28;20235;-68
2023/08/29 08:17:17;;;;;;;3.72;3.40;;;;;;;18.43;81.58;101054.25;6239200;28;20231;-68
2023/08/29 08:20:38;;;;;;;7.35;6.75;;;;;;;18.47;81.99;101055.63;6250018;28;20231;-67
2023/08/29 08:23:59;;;;;;;5.30;3.42;;;;;;;18.49;82.37;101053.56;6255088;28;20239;-67
2023/08/29 08:27:22;;;;;;;4.38;2.13;;;;;;;18.31;82.36;101066.63;6224132;28;20237;-67
2023/08/29 08:30:42;;;;;;;2.88;1.63;;;;;;;18.47;82.27;101066.53;6241859;28;20239;-67
2023/08/29 08:34:03;;;;;;;2.47;1.73;;;;;;;18.53;81.82;101062.22;6250988;28;20235;-67
2023/08/29 08:37:24;;;;;;;1.58;1.48;;;;;;;18.45;81.66;101065.88;6242559;28;20253;-67
2023/08/29 08:40:45;;;;;;;4.85;4.45;;;;;;;18.55;81.93;101066.47;6240801;28;20231;-68
2023/08/29 08:44:10;;;;;;;11.63;10.43;;;;;;;18.65;81.86;101068.97;6252521;28;20800;-68
2023/08/29 08:47:31;;;;;;;5.10;4.57;;;;;;;18.64;81.86;101070.84;6231483;28;20571;-67
2023/08/29 08:50:52;;;;;;;2.30;2.08;;;;;;;18.63;81.63;101071.84;6242553;28;20260;-68
2023/08/29 08:54:14;;;;;;;3.28;2.45;;;;;;;18.75;81.03;101078.63;6254889;28;20613;-67
2023/08/29 08:57:37;;;;;;;2.50;2.17;;;;;;;18.96;80.82;101086.09;6246694;28;21976;-69
2023/08/29 09:00:59;;;;;;;5.40;2.00;;;;;;;19.00;80.22;101082.78;6247048;28;20228;-68
2023/08/29 09:04:20;;;;;;;12.85;9.45;;;;;;;19.07;80.36;101091.09;6257633;28;20553;-68
2023/08/29 09:07:43;;;;;;;4.30;2.65;;;;;;;19.07;79.23;101082.91;6252514;28;20232;-68
2023/08/29 09:11:05;;;;;;;5.05;2.30;;;;;;;18.88;80.21;101087.00;6244505;28;21773;-67
2023/08/29 09:14:27;;;;;;;4.05;2.97;;;;;;;19.04;80.63;101086.03;6251536;28;20641;-67
2023/08/29 09:17:51;;;;;;;3.72;2.75;;;;;;;19.27;79.86;101084.06;6242173;28;20232;-68
2023/08/29 09:21:17;;;;;;;3.90;2.67;;;;;;;19.59;79.10;101080.97;6248632;28;20703;-68
2023/08/29 09:24:38;;;;;;;5.13;2.45;;;;;;;19.74;78.41;101075.50;6255264;28;20228;-67
2023/08/29 09:27:59;;;;;;;8.45;6.97;;;;;;;19.74;77.50;101073.63;6244561;28;20247;-67
2023/08/29 09:31:19;;;;;;;2.88;2.67;;;;;;;19.77;77.34;101077.88;6233109;28;20231;-66
2023/08/29 09:34:42;;;;;;;3.08;2.78;;;;;;;20.13;76.45;101080.63;6251629;28;20260;-69
2023/08/29 09:38:03;;;;;;;2.80;2.13;;;;;;;20.23;76.21;101073.84;6246272;28;20228;-67
2023/08/29 09:41:24;;;;;;;4.22;1.83;;;;;;;20.56;75.47;101072.28;6237035;28;20244;-68
2023/08/29 09:44:45;;;;;;;2.33;2.05;;;;;;;20.84;73.79;101064.06;6255830;28;20231;-69
2023/08/29 09:48:10;;;;;;;2.17;1.35;;;;;;;21.15;72.51;101075.53;6245867;28;20224;-68
2023/08/29 09:51:34;;;;;;;2.17;1.42;;;;;;;21.60;72.02;101067.81;6232837;28;20820;-67
2023/08/29 09:54:57;;;;;;;1.92;1.80;;;;;;;21.30;71.51;101072.69;6253897;28;20232;-68
2023/08/29 09:58:18;;;;;;;1.60;1.50;;;;;;;21.29;71.71;101065.53;6248652;28;20228;-67
2023/08/29 10:01:41;;;;;;;2.20;1.52;;;;;;;21.25;71.84;101066.97;6247052;28;20801;-68
2023/08/29 10:05:06;;;;;;;1.80;1.70;;;;;;;21.52;71.18;101062.50;6254422;28;20259;-69
2023/08/29 10:08:34;;;;;;;4.28;1.45;;;;;;;21.48;69.75;101053.81;6239402;28;20235;-68
2023/08/29 10:11:56;;;;;;;1.80;1.50;;;;;;;21.99;69.53;101055.13;6248276;28;20224;-68
2023/08/29 10:15:18;;;;;;;2.03;1.50;;;;;;;22.09;69.12;101052.00;6254341;28;20231;-66
2023/08/29 10:18:40;;;;;;;8.95;7.10;;;;;;;22.03;67.61;101050.06;6245479;28;20236;-68
2023/08/29 10:22:03;;;;;;;2.22;1.60;;;;;;;21.69;68.34;101052.88;6235776;28;20645;-67
2023/08/29 10:25:26;;;;;;;2.63;1.58;;;;;;;22.32;67.18;101049.72;6248559;28;20228;-68
2023/08/29 10:28:48;;;;;;;1.42;1.23;;;;;;;22.30;65.93;101045.50;6247769;28;20503;-68
2023/08/29 10:32:10;;;;;;;7.18;1.50;;;;;;;22.19;63.61;101045.06;6248607;28;20259;-68
2023/08/29 10:35:32;;;;;;;3.65;1.58;;;;;;;22.28;62.83;101041.06;6252531;28;20223;-68
2023/08/29 10:38:57;;;;;;;1.88;1.10;;;;;;;21.03;65.46;101038.75;6260860;28;20239;-68
2023/08/29 10:42:19;;;;;;;2.45;1.35;;;;;;;21.82;66.05;101037.31;6245811;28;20236;-69
2023/08/29 10:45:43;;;;;;;0.80;0.75;;;;;;;22.45;63.46;101032.41;6258996;28;20314;-68
2023/08/29 10:49:11;;;;;;;1.35;1.25;;;;;;;22.92;62.40;101033.13;6247610;28;20227;-68
2023/08/29 10:52:39;;;;;;;1.58;1.10;;;;;;;22.85;62.40;101032.25;6246586;28;20597;-68
2023/08/29 10:56:03;;;;;;;1.60;0.70;;;;;;;22.72;62.12;101018.50;6239665;28;20227;-67
2023/08/29 10:59:33;;;;;;;3.88;2.60;;;;;;;22.66;61.18;101018.50;6250716;28;20231;-67
2023/08/29 11:02:54;;;;;;;1.00;1.00;;;;;;;22.97;59.97;101016.81;6247964;28;20255;-67
2023/08/29 11:06:16;;;;;;;0.80;0.68;;;;;;;23.84;55.28;101008.13;6246419;28;20236;-68
2023/08/29 11:09:37;;;;;;;1.52;0.85;;;;;;;23.60;54.86;101008.84;6255361;28;20332;-67
2023/08/29 11:13:06;;;;;;;1.48;1.38;;;;;;;24.75;54.53;101006.72;6247499;28;20252;-68
2023/08/29 11:16:30;;;;;;;1.02;0.70;;;;;;;25.45;52.90;101001.78;6247532;28;20226;-67
2023/08/29 11:19:55;;;;;;;1.20;1.10;;;;;;;24.91;52.04;100997.84;6231350;28;20245;-67
2023/08/29 11:23:16;;;;;;;1.45;1.08;;;;;;;24.27;54.06;100992.63;6243288;28;20224;-68
2023/08/29 11:26:40;;;;;;;1.10;0.98;;;;;;;24.35;53.23;100992.34;6241295;28;20306;-68
2023/08/29 11:30:02;;;;;;;1.65;0.90;;;;;;;23.83;52.33;100979.72;6252595;28;20235;-68
2023/08/29 11:33:30;;;;;;;1.00;1.00;;;;;;;23.73;53.72;100978.50;6230521;28;20228;-69
2023/08/29 11:36:51;;;;;;;0.80;0.80;;;;;;;24.47;53.28;100978.69;6227037;28;20231;-67
2023/08/29 11:40:12;;;;;;;2.15;1.23;;;;;;;27.84;47.26;100973.34;6248432;28;20248;-67
2023/08/29 11:43:34;;;;;;;0.80;0.68;;;;;;;30.41;43.21;100969.78;6234002;28;20245;-67
2023/08/29 11:46:57;;;;;;;1.05;0.77;;;;;;;31.31;39.42;100967.69;6229886;28;21542;-68
2023/08/29 11:50:19;;;;;;;1.40;0.93;;;;;;;25.78;46.54;100963.56;6248670;28;20224;-71
2023/08/29 11:53:40;;;;;;;0.60;0.60;;;;;;;24.54;50.37;100968.47;6238053;28;20232;-68
2023/08/29 11:57:03;;;;;;;2.22;0.85;;;;;;;24.17;50.38;100961.13;6238245;28;20322;-68
2023/08/29 12:00:25;;;;;;;0.95;0.70;;;;;;;24.20;50.01;100972.53;6242191;28;20239;-68
2023/08/29 12:03:46;;;;;;;2.03;0.77;;;;;;;25.00;49.04;100957.88;6248392;28;20231;-67
2023/08/29 12:07:13;;;;;;;1.25;0.90;;;;;;;26.28;45.36;100961.34;6236894;28;20231;-68
2023/08/29 12:10:34;;;;;;;1.08;0.93;;;;;;;26.95;44.32;100958.09;6243404;28;20224;-68
2023/08/29 12:13:59;;;;;;;1.75;0.80;;;;;;;25.79;45.38;100959.69;6247756;28;20648;-67
2023/08/29 12:17:21;;;;;;;0.68;0.68;;;;;;;27.15;44.26;100963.25;6227720;28;20224;-67
2023/08/29 12:20:42;;;;;;;1.33;0.82;;;;;;;27.94;41.88;100949.44;6249655;28;20499;-67
2023/08/29 12:24:11;;;;;;;0.50;0.50;;;;;;;27.86;41.90;100951.75;6258566;28;20231;-68
2023/08/29 12:27:32;;;;;;;1.00;0.90;;;;;;;27.38;42.55;100946.63;6246430;28;20238;-67
2023/08/29 12:30:56;;;;;;;0.73;0.73;;;;;;;26.05;43.17;100948.28;6244586;28;20242;-66
2023/08/29 12:34:17;;;;;;;1.00;0.65;;;;;;;26.06;45.15;100944.41;6252041;28;20508;-66
2023/08/29 12:37:38;;;;;;;0.60;0.60;;;;;;;26.38;45.16;100937.56;6236436;28;20239;-69
2023/08/29 12:41:01;;;;;;;0.55;0.55;;;;;;;26.81;42.63;100943.66;6247432;28;21033;-68
2023/08/29 12:44:22;;;;;;;0.60;0.50;;;;;;;26.60;43.00;100944.19;6256895;28;20235;-68
2023/08/29 12:47:43;;;;;;;14.32;12.85;;;;;;;25.23;45.41;100946.16;6238735;28;20350;-67
2023/08/29 12:51:03;;;;;;;4.10;3.67;;;;;;;24.67;46.35;100942.69;6242168;28;20608;-69
2023/08/29 12:54:24;;;;;;;2.20;2.00;;;;;;;24.21;47.66;100937.56;6258029;28;20462;-67
2023/08/29 12:57:49;;;;;;;0.60;0.60;;;;;;;23.68;49.16;100929.59;6223856;28;20247;-68
2023/08/29 13:01:10;;;;;;;1.73;0.90;;;;;;;22.20;52.65;100928.63;6241395;28;20279;-67
2023/08/29 13:04:31;;;;;;;1.35;1.20;;;;;;;22.75;52.78;100926.53;6255164;28;20227;-68
2023/08/29 13:07:52;;;;;;;1.38;1.27;;;;;;;22.53;53.08;100933.31;6239183;28;20223;-68
2023/08/29 13:11:12;;;;;;;0.70;0.70;;;;;;;22.33;53.37;100924.19;6243906;28;20310;-68
2023/08/29 13:14:35;;;;;;;10.40;9.38;;;;;;;25.26;49.50;100918.91;6253083;28;21988;-67
2023/08/29 13:17:55;;;;;;;1.65;0.98;;;;;;;25.91;46.28;100914.47;6239181;28;21862;-67
2023/08/29 13:21:16;;;;;;;2.05;1.13;;;;;;;27.04;44.81;100919.78;6239540;28;20259;-68
2023/08/29 13:24:37;;;;;;;0.77;0.70;;;;;;;25.08;46.64;100921.69;6258359;28;20235;-68
2023/08/29 13:27:58;;;;;;;1.08;0.98;;;;;;;25.54;45.98;100918.38;6246549;28;20228;-67
2023/08/29 13:31:23;;;;;;;1.33;0.70;;;;;;;27.09;42.99;100906.94;6237428;28;20789;-67
2023/08/29 13:34:44;;;;;;;2.15;1.00;;;;;;;26.72;42.92;100905.53;6252421;28;20311;-68
2023/08/29 13:38:04;;;;;;;1.15;1.05;;;;;;;25.54;44.47;100899.06;6246747;28;20248;-67
2023/08/29 13:41:25;;;;;;;1.48;1.15;;;;;;;25.16;44.35;100891.03;6247870;28;20271;-68
2023/08/29 13:44:46;;;;;;;1.45;1.00;;;;;;;22.60;49.52;100898.41;6264466;28;20319;-68
2023/08/29 13:48:08;;;;;;;0.90;0.80;;;;;;;24.39;46.98;100894.38;6245409;28;21154;-67
2023/08/29 13:51:29;;;;;;;1.13;0.65;;;;;;;26.25;43.01;100887.16;6235362;28;20228;-68
2023/08/29 13:54:50;;;;;;;1.55;0.75;;;;;;;26.71;42.56;100888.03;6257931;28;20227;-69
2023/08/29 13:58:11;;;;;;;0.80;0.50;;;;;;;26.30;41.68;100879.88;6245111;28;20240;-68
2023/08/29 14:01:32;;;;;;;0.95;0.90;;;;;;;26.14;41.88;100875.84;6246213;28;20239;-67
2023/08/29 14:04:54;;;;;;;0.73;0.70;;;;;;;27.66;41.09;100883.75;6258111;28;20231;-68
2023/08/29 14:08:16;;;;;;;1.25;1.15;;;;;;;27.91;39.83;100879.78;6247148;28;20224;-68
2023/08/29 14:11:38;;;;;;;0.85;0.85;;;;;;;27.58;40.17;100878.63;6236764;28;20834;-66
2023/08/29 14:14:59;;;;;;;1.98;0.70;;;;;;;28.08;40.01;100881.50;6252063;28;20702;-68
2023/08/29 14:18:19;;;;;;;4.68;0.88;;;;;;;28.01;39.83;100877.22;6235311;28;20236;-69
2023/08/29 14:21:42;;;;;;;1.40;0.90;;;;;;;28.80;39.39;100881.59;6228009;28;23125;-68
2023/08/29 14:25:02;;;;;;;0.70;0.70;;;;;;;28.84;38.01;100880.84;6244416;28;21618;-69
2023/08/29 14:28:23;;;;;;;1.17;0.88;;;;;;;29.37;37.37;100887.69;6233148;28;20259;-70
2023/08/29 14:31:44;;;;;;;4.65;0.90;;;;;;;29.25;37.70;100887.78;6234160;28;20323;-70
2023/08/29 14:35:09;;;;;;;4.30;1.02;;;;;;;28.54;39.67;100893.38;6248226;28;20233;-70
2023/08/29 14:38:31;;;;;;;1.98;0.70;;;;;;;28.27;40.53;100885.72;6243653;28;20319;-70
2023/08/29 14:41:52;;;;;;;3.40;0.82;;;;;;;27.23;41.37;100890.88;6238508;28;20231;-70
2023/08/29 14:45:13;;;;;;;1.35;0.98;;;;;;;26.89;43.34;100885.16;6253114;28;20228;-71
2023/08/29 14:48:36;;;;;;;1.90;1.00;;;;;;;25.15;43.88;100881.06;6236832;28;20769;-70
2023/08/29 14:51:57;;;;;;;1.38;0.70;;;;;;;23.79;46.72;100892.25;6234884;28;20239;-70
2023/08/29 14:55:23;;;;;;;0.88;0.70;;;;;;;24.66;46.94;100894.13;6233229;28;20232;-71
2023/08/29 14:58:46;;;;;;;1.75;0.70;;;;;;;24.43;45.82;100895.59;6205419;28;20305;-70
2023/08/29 15:02:07;;;;;;;0.73;0.70;;;;;;;24.75;46.81;100895.53;6205458;28;20233;-70
2023/08/29 15:05:29;;;;;;;0.85;0.63;;;;;;;24.56;47.18;100895.47;6232702;28;20256;-70
2023/08/29 15:08:49;;;;;;;1.42;1.27;;;;;;;24.49;48.35;100896.63;6220458;28;20581;-71
2023/08/29 15:12:12;;;;;;;1.52;0.75;;;;;;;24.22;48.68;100904.25;6223943;28;20605;-70
2023/08/29 15:15:36;;;;;;;0.60;0.60;;;;;;;24.06;48.90;100903.97;6237132;28;20240;-69
2023/08/29 15:18:58;;;;;;;1.52;0.85;;;;;;;23.70;47.83;100899.09;6231667;28;20601;-69
2023/08/29 15:22:18;;;;;;;1.20;0.82;;;;;;;23.56;47.89;100897.47;6231282;28;20251;-70
2023/08/29 15:25:39;;;;;;;1.73;1.08;;;;;;;23.73;50.04;100896.75;6243274;28;20243;-69
2023/08/29 15:29:03;;;;;;;0.88;0.80;;;;;;;23.65;49.42;100894.28;6235450;28;20673;-69
2023/08/29 15:32:25;;;;;;;1.08;1.00;;;;;;;24.43;47.90;100890.09;6225354;28;20232;-69
2023/08/29 15:35:46;;;;;;;0.60;0.60;;;;;;;24.79;47.91;100891.25;6225768;28;20683;-69
2023/08/29 15:39:07;;;;;;;0.63;0.63;;;;;;;24.50;47.25;100895.53;6227906;28;20323;-70